sensor_id;sensor_type;location;lat;lon;timestamp;pressure;altitude;pressure_sealevel;temperature;humidity
45327;BME280;31062;49.678;24.560;2023-05-16T00:01:45;97676.97;;;15.57;73.11
45327;BME280;31062;49.678;24.560;2023-05-16T00:04:31;97516.44;;;14.45;73.04
45327;BME280;31062;49.678;24.560;2023-05-16T00:07:17;97702.31;;;15.61;72.80
45327;BME280;31062;49.678;24.560;2023-05-16T00:10:04;97614.06;;;14.99;72.81
45327;BME280;31062;49.678;24.560;2023-05-16T00:12:49;97555.06;;;14.64;72.90
45327;BME280;31062;49.678;24.560;2023-05-16T00:15:35;97727.56;;;15.63;72.88
45327;BME280;31062;49.678;24.560;2023-05-16T00:18:22;97533.78;;;14.43;72.58
45327;BME280;31062;49.678;24.560;2023-05-16T00:21:08;97540.31;;;14.48;73.28
45327;BME280;31062;49.678;24.560;2023-05-16T00:23:53;97551.47;;;14.48;72.85
45327;BME280;31062;49.678;24.560;2023-05-16T00:26:38;97584.72;;;14.71;72.61
45327;BME280;31062;49.678;24.560;2023-05-16T00:29:24;97706.34;;;15.58;73.00
45327;BME280;31062;49.678;24.560;2023-05-16T00:32:10;97662.44;;;15.18;72.89
45327;BME280;31062;49.678;24.560;2023-05-16T00:34:57;97702.94;;;15.46;73.22
45327;BME280;31062;49.678;24.560;2023-05-16T00:37:42;97579.56;;;14.52;73.51
45327;BME280;31062;49.678;24.560;2023-05-16T00:40:28;97548.13;;;14.24;73.66
45327;BME280;31062;49.678;24.560;2023-05-16T00:43:13;97714.94;;;15.35;74.13
45327;BME280;31062;49.678;24.560;2023-05-16T00:45:58;97685.38;;;15.02;74.21
45327;BME280;31062;49.678;24.560;2023-05-16T00:48:46;97716.28;;;15.20;74.75
45327;BME280;31062;49.678;24.560;2023-05-16T00:51:31;97685.16;;;14.98;74.72
45327;BME280;31062;49.678;24.560;2023-05-16T00:54:17;97752.16;;;15.26;74.89
45327;BME280;31062;49.678;24.560;2023-05-16T00:57:05;97688.06;;;15.00;74.60
45327;BME280;31062;49.678;24.560;2023-05-16T00:59:51;97716.47;;;15.38;74.54
45327;BME280;31062;49.678;24.560;2023-05-16T01:02:37;97538.16;;;14.07;74.20
45327;BME280;31062;49.678;24.560;2023-05-16T01:05:22;97559.16;;;14.22;74.04
45327;BME280;31062;49.678;24.560;2023-05-16T01:08:08;97727.75;;;15.40;74.23
45327;BME280;31062;49.678;24.560;2023-05-16T01:20:48;97730.78;;;15.30;74.18
45327;BME280;31062;49.678;24.560;2023-05-16T01:23:52;97708.31;;;15.15;74.23
45327;BME280;31062;49.678;24.560;2023-05-16T01:26:45;97735.63;;;15.30;74.14
45327;BME280;31062;49.678;24.560;2023-05-16T01:29:31;97694.59;;;15.05;74.19
45327;BME280;31062;49.678;24.560;2023-05-16T01:32:16;97779.56;;;15.16;74.86
45327;BME280;31062;49.678;24.560;2023-05-16T01:35:03;97780.28;;;15.02;75.32
45327;BME280;31062;49.678;24.560;2023-05-16T01:37:57;97757.84;;;15.00;75.32
45327;BME280;31062;49.678;24.560;2023-05-16T01:40:56;97652.47;;;14.21;75.54
45327;BME280;31062;49.678;24.560;2023-05-16T01:43:48;97766.44;;;15.04;75.66
45327;BME280;31062;49.678;24.560;2023-05-16T01:46:37;97746.13;;;14.90;75.29
45327;BME280;31062;49.678;24.560;2023-05-16T01:49:48;97604.38;;;13.95;75.01
45327;BME280;31062;49.678;24.560;2023-05-16T01:52:45;97787.50;;;15.07;75.25
45327;BME280;31062;49.678;24.560;2023-05-16T01:55:46;97800.84;;;15.09;75.07
45327;BME280;31062;49.678;24.560;2023-05-16T01:58:32;97618.97;;;14.07;75.29
45327;BME280;31062;49.678;24.560;2023-05-16T02:01:21;97747.00;;;15.06;75.11
45327;BME280;31062;49.678;24.560;2023-05-16T02:04:07;97756.91;;;15.09;75.58
45327;BME280;31062;49.678;24.560;2023-05-16T02:06:53;97771.06;;;15.13;75.49
45327;BME280;31062;49.678;24.560;2023-05-16T02:09:40;97581.03;;;13.75;74.97
45327;BME280;31062;49.678;24.560;2023-05-16T02:12:25;97623.00;;;14.04;75.20
45327;BME280;31062;49.678;24.560;2023-05-16T02:15:11;97771.41;;;15.06;75.46
45327;BME280;31062;49.678;24.560;2023-05-16T02:17:59;97736.81;;;14.72;75.20
45327;BME280;31062;49.678;24.560;2023-05-16T02:20:45;97778.84;;;15.01;75.48
45327;BME280;31062;49.678;24.560;2023-05-16T02:23:30;97616.56;;;13.88;75.43
45327;BME280;31062;49.678;24.560;2023-05-16T02:26:17;97778.28;;;14.91;75.87
45327;BME280;31062;49.678;24.560;2023-05-16T02:29:02;97603.06;;;13.71;75.89
45327;BME280;31062;49.678;24.560;2023-05-16T02:31:48;97594.66;;;13.57;76.14
45327;BME280;31062;49.678;24.560;2023-05-16T02:34:33;97620.56;;;13.60;75.81
45327;BME280;31062;49.678;24.560;2023-05-16T02:37:19;97777.09;;;14.69;76.72
45327;BME280;31062;49.678;24.560;2023-05-16T02:40:07;97803.88;;;14.74;76.42
45327;BME280;31062;49.678;24.560;2023-05-16T02:42:53;97660.91;;;13.84;76.42
45327;BME280;31062;49.678;24.560;2023-05-16T02:45:39;97802.66;;;14.77;76.66
45327;BME280;31062;49.678;24.560;2023-05-16T02:48:25;97714.75;;;14.25;75.69
45327;BME280;31062;49.678;24.560;2023-05-16T02:51:11;97658.13;;;13.84;76.35
45327;BME280;31062;49.678;24.560;2023-05-16T02:53:56;97809.06;;;14.80;76.26
45327;BME280;31062;49.678;24.560;2023-05-16T02:56:43;97754.00;;;14.55;76.03
45327;BME280;31062;49.678;24.560;2023-05-16T02:59:29;97796.97;;;14.75;76.12
45327;BME280;31062;49.678;24.560;2023-05-16T03:02:14;97785.34;;;14.67;76.07
45327;BME280;31062;49.678;24.560;2023-05-16T03:04:59;97752.25;;;14.48;75.86
45327;BME280;31062;49.678;24.560;2023-05-16T03:07:45;97786.81;;;14.68;75.80
45327;BME280;31062;49.678;24.560;2023-05-16T03:10:30;97787.03;;;14.72;75.76
45327;BME280;31062;49.678;24.560;2023-05-16T03:13:16;97785.81;;;14.75;75.64
45327;BME280;31062;49.678;24.560;2023-05-16T03:16:02;97647.97;;;13.77;75.41
45327;BME280;31062;49.678;24.560;2023-05-16T03:18:47;97795.22;;;14.82;75.75
45327;BME280;31062;49.678;24.560;2023-05-16T03:21:32;97791.19;;;14.85;75.61
45327;BME280;31062;49.678;24.560;2023-05-16T03:24:18;97793.50;;;14.88;75.79
45327;BME280;31062;49.678;24.560;2023-05-16T03:27:06;97825.06;;;14.79;75.91
45327;BME280;31062;49.678;24.560;2023-05-16T03:29:52;97804.88;;;14.92;76.06
45327;BME280;31062;49.678;24.560;2023-05-16T03:32:37;97626.59;;;13.68;75.83
45327;BME280;31062;49.678;24.560;2023-05-16T03:35:23;97633.81;;;13.73;75.97
45327;BME280;31062;49.678;24.560;2023-05-16T03:38:08;97810.78;;;14.98;76.17
45327;BME280;31062;49.678;24.560;2023-05-16T03:40:54;97649.03;;;13.83;75.91
45327;BME280;31062;49.678;24.560;2023-05-16T03:43:41;97812.53;;;15.05;75.77
45327;BME280;31062;49.678;24.560;2023-05-16T03:46:27;97808.31;;;15.04;75.68
45327;BME280;31062;49.678;24.560;2023-05-16T03:49:12;97779.22;;;14.82;75.48
45327;BME280;31062;49.678;24.560;2023-05-16T03:51:57;97648.31;;;13.83;75.64
45327;BME280;31062;49.678;24.560;2023-05-16T03:54:43;97758.03;;;14.52;75.71
45327;BME280;31062;49.678;24.560;2023-05-16T03:57:43;97827.72;;;15.02;75.93
45327;BME280;31062;49.678;24.560;2023-05-16T04:00:50;97810.13;;;14.86;76.12
45327;BME280;31062;49.678;24.560;2023-05-16T04:03:36;97834.84;;;14.92;76.28
45327;BME280;31062;49.678;24.560;2023-05-16T04:06:22;97841.47;;;14.98;76.42
45327;BME280;31062;49.678;24.560;2023-05-16T04:09:08;97677.63;;;13.84;75.88
45327;BME280;31062;49.678;24.560;2023-05-16T04:11:53;97868.47;;;15.07;76.02
45327;BME280;31062;49.678;24.560;2023-05-16T04:14:43;97722.00;;;14.30;76.03
45327;BME280;31062;49.678;24.560;2023-05-16T04:17:28;97803.41;;;14.91;76.23
45327;BME280;31062;49.678;24.560;2023-05-16T04:20:14;97836.97;;;15.19;76.16
45327;BME280;31062;49.678;24.560;2023-05-16T04:22:59;97839.88;;;15.21;76.41
45327;BME280;31062;49.678;24.560;2023-05-16T04:25:45;97712.06;;;14.27;76.02
45327;BME280;31062;49.678;24.560;2023-05-16T04:28:30;97766.06;;;14.71;76.29
45327;BME280;31062;49.678;24.560;2023-05-16T04:31:16;97843.22;;;15.31;76.36
45327;BME280;31062;49.678;24.560;2023-05-16T04:34:02;97682.75;;;14.26;76.17
45327;BME280;31062;49.678;24.560;2023-05-16T04:36:48;97843.84;;;15.43;76.46
45327;BME280;31062;49.678;24.560;2023-05-16T04:39:34;97771.81;;;15.00;76.82
45327;BME280;31062;49.678;24.560;2023-05-16T04:42:20;97867.88;;;15.75;76.62
45327;BME280;31062;49.678;24.560;2023-05-16T04:45:06;97842.63;;;15.73;76.43
45327;BME280;31062;49.678;24.560;2023-05-16T04:47:55;97719.09;;;15.06;75.70
45327;BME280;31062;49.678;24.560;2023-05-16T04:50:42;97867.34;;;16.20;75.65
45327;BME280;31062;49.678;24.560;2023-05-16T04:53:28;97700.25;;;15.21;75.11
45327;BME280;31062;49.678;24.560;2023-05-16T04:56:14;97874.63;;;16.54;75.39
45327;BME280;31062;49.678;24.560;2023-05-16T04:59:00;97832.56;;;16.39;73.26
45327;BME280;31062;49.678;24.560;2023-05-16T05:01:46;97888.38;;;16.93;73.26
45327;BME280;31062;49.678;24.560;2023-05-16T05:04:32;97871.06;;;16.97;72.48
45327;BME280;31062;49.678;24.560;2023-05-16T05:07:22;97888.00;;;17.14;72.14
45327;BME280;31062;49.678;24.560;2023-05-16T05:10:08;97757.41;;;16.31;72.34
45327;BME280;31062;49.678;24.560;2023-05-16T05:12:53;97879.66;;;17.17;71.84
45327;BME280;31062;49.678;24.560;2023-05-16T05:15:39;97744.19;;;16.18;71.52
45327;BME280;31062;49.678;24.560;2023-05-16T05:18:25;97899.19;;;17.30;71.35
45327;BME280;31062;49.678;24.560;2023-05-16T05:21:11;97897.75;;;17.29;71.24
45327;BME280;31062;49.678;24.560;2023-05-16T05:23:57;97901.91;;;17.28;71.31
45327;BME280;31062;49.678;24.560;2023-05-16T05:26:43;97892.88;;;17.30;73.04
45327;BME280;31062;49.678;24.560;2023-05-16T05:29:29;97885.47;;;17.36;72.61
45327;BME280;31062;49.678;24.560;2023-05-16T05:32:15;97732.59;;;16.39;71.80
45327;BME280;31062;49.678;24.560;2023-05-16T05:35:01;97896.88;;;17.72;70.88
45327;BME280;31062;49.678;24.560;2023-05-16T05:37:49;97886.31;;;17.86;70.62
45327;BME280;31062;49.678;24.560;2023-05-16T05:40:37;97891.25;;;18.03;70.58
45327;BME280;31062;49.678;24.560;2023-05-16T05:43:26;97883.41;;;18.17;69.06
45327;BME280;31062;49.678;24.560;2023-05-16T05:46:12;97873.31;;;18.10;68.36
45327;BME280;31062;49.678;24.560;2023-05-16T05:48:58;97854.66;;;18.17;67.62
45327;BME280;31062;49.678;24.560;2023-05-16T05:51:44;97891.50;;;18.43;67.38
45327;BME280;31062;49.678;24.560;2023-05-16T05:54:29;97848.66;;;18.24;67.15
45327;BME280;31062;49.678;24.560;2023-05-16T05:57:15;97791.16;;;18.08;65.56
45327;BME280;31062;49.678;24.560;2023-05-16T06:00:00;97742.44;;;17.81;65.87
45327;BME280;31062;49.678;24.560;2023-05-16T06:02:51;97720.38;;;17.74;64.71
45327;BME280;31062;49.678;24.560;2023-05-16T06:05:37;97855.88;;;18.63;64.92
45327;BME280;31062;49.678;24.560;2023-05-16T06:08:23;97766.16;;;17.96;63.59
45327;BME280;31062;49.678;24.560;2023-05-16T06:11:08;97890.59;;;18.71;62.15
45327;BME280;31062;49.678;24.560;2023-05-16T06:13:54;97857.16;;;18.26;63.29
45327;BME280;31062;49.678;24.560;2023-05-16T06:16:39;97870.59;;;18.12;64.11
45327;BME280;31062;49.678;24.560;2023-05-16T06:19:25;97911.78;;;18.41;63.77
45327;BME280;31062;49.678;24.560;2023-05-16T06:22:10;97930.63;;;18.39;64.80
45327;BME280;31062;49.678;24.560;2023-05-16T06:24:56;97909.69;;;18.42;65.35
45327;BME280;31062;49.678;24.560;2023-05-16T06:27:41;97901.00;;;18.35;64.94
45327;BME280;31062;49.678;24.560;2023-05-16T06:30:27;97920.19;;;18.41;65.05
45327;BME280;31062;49.678;24.560;2023-05-16T06:33:13;97853.44;;;17.88;64.95
45327;BME280;31062;49.678;24.560;2023-05-16T06:35:59;97807.91;;;17.57;64.85
45327;BME280;31062;49.678;24.560;2023-05-16T06:38:45;97936.97;;;18.39;64.92
45327;BME280;31062;49.678;24.560;2023-05-16T06:41:35;97941.28;;;18.42;65.33
45327;BME280;31062;49.678;24.560;2023-05-16T06:44:22;97687.44;;;16.76;63.56
45327;BME280;31062;49.678;24.560;2023-05-16T06:47:08;97805.56;;;17.67;63.94
45327;BME280;31062;49.678;24.560;2023-05-16T06:49:54;97867.19;;;17.98;63.57
45327;BME280;31062;49.678;24.560;2023-05-16T06:52:39;97811.00;;;17.63;64.59
45327;BME280;31062;49.678;24.560;2023-05-16T06:55:26;97935.66;;;18.58;65.38
45327;BME280;31062;49.678;24.560;2023-05-16T06:58:12;97910.00;;;18.32;64.47
45327;BME280;31062;49.678;24.560;2023-05-16T07:00:57;97835.16;;;18.03;63.57
45327;BME280;31062;49.678;24.560;2023-05-16T07:03:42;97900.25;;;18.51;61.31
45327;BME280;31062;49.678;24.560;2023-05-16T07:06:28;97804.47;;;17.74;62.34
45327;BME280;31062;49.678;24.560;2023-05-16T07:09:14;97776.09;;;17.50;62.65
45327;BME280;31062;49.678;24.560;2023-05-16T07:12:00;97809.72;;;17.66;63.94
45327;BME280;31062;49.678;24.560;2023-05-16T07:14:45;97664.63;;;16.66;63.44
45327;BME280;31062;49.678;24.560;2023-05-16T07:17:31;97922.50;;;18.29;64.23
45327;BME280;31062;49.678;24.560;2023-05-16T07:20:16;97947.88;;;18.49;64.09
45327;BME280;31062;49.678;24.560;2023-05-16T07:23:02;97977.88;;;18.44;64.56
45327;BME280;31062;49.678;24.560;2023-05-16T07:25:47;97902.81;;;18.11;64.41
45327;BME280;31062;49.678;24.560;2023-05-16T07:28:33;97962.13;;;18.37;64.43
45327;BME280;31062;49.678;24.560;2023-05-16T07:31:18;97943.66;;;18.32;64.55
45327;BME280;31062;49.678;24.560;2023-05-16T07:34:04;97906.06;;;18.06;64.98
45327;BME280;31062;49.678;24.560;2023-05-16T07:36:50;97949.53;;;18.38;63.98
45327;BME280;31062;49.678;24.560;2023-05-16T07:39:36;97797.28;;;17.37;65.04
45327;BME280;31062;49.678;24.560;2023-05-16T07:42:22;97842.75;;;17.67;64.10
45327;BME280;31062;49.678;24.560;2023-05-16T07:45:08;97960.84;;;18.56;63.88
45327;BME280;31062;49.678;24.560;2023-05-16T07:47:53;97960.84;;;18.56;64.67
45327;BME280;31062;49.678;24.560;2023-05-16T07:50:39;97981.56;;;18.64;63.58
45327;BME280;31062;49.678;24.560;2023-05-16T07:53:24;97937.50;;;18.35;63.36
45327;BME280;31062;49.678;24.560;2023-05-16T07:56:10;97919.44;;;18.23;64.20
45327;BME280;31062;49.678;24.560;2023-05-16T07:58:55;97849.84;;;17.70;64.17
45327;BME280;31062;49.678;24.560;2023-05-16T08:01:41;97886.19;;;18.00;64.30
45327;BME280;31062;49.678;24.560;2023-05-16T08:04:26;97899.56;;;18.01;63.64
45327;BME280;31062;49.678;24.560;2023-05-16T08:07:13;97857.22;;;17.62;64.06
45327;BME280;31062;49.678;24.560;2023-05-16T08:09:58;97933.47;;;18.23;63.97
45327;BME280;31062;49.678;24.560;2023-05-16T08:12:44;97820.22;;;17.49;63.87
45327;BME280;31062;49.678;24.560;2023-05-16T08:15:30;97928.31;;;18.17;64.31
45327;BME280;31062;49.678;24.560;2023-05-16T08:18:16;98003.63;;;18.72;64.23
45327;BME280;31062;49.678;24.560;2023-05-16T08:21:04;97951.22;;;18.61;63.47
45327;BME280;31062;49.678;24.560;2023-05-16T08:23:50;97973.22;;;18.84;63.87
45327;BME280;31062;49.678;24.560;2023-05-16T08:26:35;97827.22;;;17.82;63.03
45327;BME280;31062;49.678;24.560;2023-05-16T08:29:21;97920.00;;;18.53;63.19
45327;BME280;31062;49.678;24.560;2023-05-16T08:32:08;97824.69;;;17.88;63.54
45327;BME280;31062;49.678;24.560;2023-05-16T08:34:54;97987.88;;;18.98;62.96
45327;BME280;31062;49.678;24.560;2023-05-16T08:37:40;97977.81;;;18.93;60.67
45327;BME280;31062;49.678;24.560;2023-05-16T08:40:25;97847.63;;;18.00;61.91
45327;BME280;31062;49.678;24.560;2023-05-16T08:43:12;97986.41;;;18.97;60.66
45327;BME280;31062;49.678;24.560;2023-05-16T08:45:58;97992.53;;;19.09;61.34
45327;BME280;31062;49.678;24.560;2023-05-16T08:48:44;97861.16;;;18.21;60.63
45327;BME280;31062;49.678;24.560;2023-05-16T08:51:32;97840.22;;;18.24;61.20
45327;BME280;31062;49.678;24.560;2023-05-16T08:54:21;97981.38;;;19.29;61.20
45327;BME280;31062;49.678;24.560;2023-05-16T08:57:07;97970.69;;;19.26;59.62
45327;BME280;31062;49.678;24.560;2023-05-16T08:59:55;97940.25;;;19.02;59.85
45327;BME280;31062;49.678;24.560;2023-05-16T09:02:44;97835.97;;;18.23;59.92
45327;BME280;31062;49.678;24.560;2023-05-16T09:05:30;97849.09;;;18.34;59.45
45327;BME280;31062;49.678;24.560;2023-05-16T09:08:16;97797.00;;;17.96;59.14
45327;BME280;31062;49.678;24.560;2023-05-16T09:11:02;97963.38;;;19.18;59.69
45327;BME280;31062;49.678;24.560;2023-05-16T09:13:48;97980.16;;;19.34;59.05
45327;BME280;31062;49.678;24.560;2023-05-16T09:16:33;97832.00;;;18.28;59.38
45327;BME280;31062;49.678;24.560;2023-05-16T09:19:21;97982.75;;;19.46;60.44
45327;BME280;31062;49.678;24.560;2023-05-16T09:22:11;97947.47;;;19.25;58.62
45327;BME280;31062;49.678;24.560;2023-05-16T09:25:00;97954.13;;;19.34;59.20
45327;BME280;31062;49.678;24.560;2023-05-16T09:28:09;97991.72;;;19.60;57.59
45327;BME280;31062;49.678;24.560;2023-05-16T09:30:55;97995.91;;;19.59;57.61
45327;BME280;31062;49.678;24.560;2023-05-16T09:33:43;97955.97;;;19.45;58.03
45327;BME280;31062;49.678;24.560;2023-05-16T09:36:30;97983.91;;;19.76;58.22
45327;BME280;31062;49.678;24.560;2023-05-16T09:39:16;97990.66;;;19.69;57.90
45327;BME280;31062;49.678;24.560;2023-05-16T09:42:02;97829.16;;;18.62;57.96
45327;BME280;31062;49.678;24.560;2023-05-16T09:44:53;97868.28;;;18.93;58.60
45327;BME280;31062;49.678;24.560;2023-05-16T09:47:40;97835.38;;;18.78;58.72
45327;BME280;31062;49.678;24.560;2023-05-16T09:50:35;97844.78;;;18.85;58.63
45327;BME280;31062;49.678;24.560;2023-05-16T09:53:31;97988.91;;;19.97;58.57
45327;BME280;31062;49.678;24.560;2023-05-16T09:56:18;97845.25;;;18.97;57.01
45327;BME280;31062;49.678;24.560;2023-05-16T09:59:09;97838.75;;;18.92;56.26
45327;BME280;31062;49.678;24.560;2023-05-16T10:01:59;97923.72;;;19.46;56.91
45327;BME280;31062;49.678;24.560;2023-05-16T10:04:44;97946.75;;;19.60;57.04
45327;BME280;31062;49.678;24.560;2023-05-16T10:07:31;97853.59;;;18.95;56.33
45327;BME280;31062;49.678;24.560;2023-05-16T10:10:18;98004.31;;;19.96;57.08
45327;BME280;31062;49.678;24.560;2023-05-16T10:13:05;97885.91;;;19.13;57.02
45327;BME280;31062;49.678;24.560;2023-05-16T10:15:55;98007.09;;;19.94;56.39
45327;BME280;31062;49.678;24.560;2023-05-16T10:18:41;97875.66;;;19.02;56.53
45327;BME280;31062;49.678;24.560;2023-05-16T10:21:28;97997.69;;;19.88;56.61
45327;BME280;31062;49.678;24.560;2023-05-16T10:24:18;97935.81;;;19.33;55.85
45327;BME280;31062;49.678;24.560;2023-05-16T10:27:06;97963.38;;;19.54;56.41
45327;BME280;31062;49.678;24.560;2023-05-16T10:29:54;97878.31;;;18.98;56.64
45327;BME280;31062;49.678;24.560;2023-05-16T10:32:40;97842.59;;;18.83;56.78
45327;BME280;31062;49.678;24.560;2023-05-16T10:35:27;97983.22;;;19.95;56.75
45327;BME280;31062;49.678;24.560;2023-05-16T10:38:16;97987.66;;;20.03;56.35
45327;BME280;31062;49.678;24.560;2023-05-16T10:41:02;97839.06;;;19.00;56.42
45327;BME280;31062;49.678;24.560;2023-05-16T10:43:57;97931.59;;;19.69;56.80
45327;BME280;31062;49.678;24.560;2023-05-16T10:46:45;97921.66;;;19.66;56.81
45327;BME280;31062;49.678;24.560;2023-05-16T10:49:31;97988.41;;;20.23;56.84
45327;BME280;31062;49.678;24.560;2023-05-16T10:52:17;97987.03;;;20.24;56.37
45327;BME280;31062;49.678;24.560;2023-05-16T10:55:02;97968.28;;;20.11;55.72
45327;BME280;31062;49.678;24.560;2023-05-16T10:57:49;97818.75;;;19.02;55.55
45327;BME280;31062;49.678;24.560;2023-05-16T11:00:34;97937.91;;;19.87;56.76
45327;BME280;31062;49.678;24.560;2023-05-16T11:03:23;97896.69;;;19.56;56.90
45327;BME280;31062;49.678;24.560;2023-05-16T11:06:12;97835.78;;;19.26;56.44
45327;BME280;31062;49.678;24.560;2023-05-16T11:11:58;97989.16;;;20.43;56.95
45327;BME280;31062;49.678;24.560;2023-05-16T11:14:49;97956.28;;;20.30;56.25
45327;BME280;31062;49.678;24.560;2023-05-16T11:17:39;97986.34;;;20.43;56.23
45327;BME280;31062;49.678;24.560;2023-05-16T11:20:33;97846.00;;;19.54;57.06
45327;BME280;31062;49.678;24.560;2023-05-16T11:23:24;97839.75;;;19.56;56.60
45327;BME280;31062;49.678;24.560;2023-05-16T11:26:10;97996.84;;;20.62;56.70
45327;BME280;31062;49.678;24.560;2023-05-16T11:28:56;97970.81;;;20.42;56.47
45327;BME280;31062;49.678;24.560;2023-05-16T11:31:43;97986.59;;;20.51;56.46
45327;BME280;31062;49.678;24.560;2023-05-16T11:34:29;97841.59;;;19.49;56.48
45327;BME280;31062;49.678;24.560;2023-05-16T11:37:16;97890.81;;;19.88;57.00
45327;BME280;31062;49.678;24.560;2023-05-16T11:40:02;97836.00;;;19.49;56.52
45327;BME280;31062;49.678;24.560;2023-05-16T11:42:49;97851.72;;;19.76;57.74
45327;BME280;31062;49.678;24.560;2023-05-16T11:45:34;97987.19;;;20.67;56.78
45327;BME280;31062;49.678;24.560;2023-05-16T11:48:23;97947.66;;;20.44;56.21
45327;BME280;31062;49.678;24.560;2023-05-16T11:51:20;97878.69;;;19.83;56.55
45327;BME280;31062;49.678;24.560;2023-05-16T11:54:09;97923.38;;;20.15;56.06
45327;BME280;31062;49.678;24.560;2023-05-16T11:56:55;97892.25;;;19.89;56.75
45327;BME280;31062;49.678;24.560;2023-05-16T11:59:41;97985.44;;;20.58;57.80
45327;BME280;31062;49.678;24.560;2023-05-16T12:02:27;97972.00;;;20.57;56.54
45327;BME280;31062;49.678;24.560;2023-05-16T12:05:18;98001.84;;;20.64;56.69
45327;BME280;31062;49.678;24.560;2023-05-16T12:08:04;97981.41;;;20.63;56.42
45327;BME280;31062;49.678;24.560;2023-05-16T12:10:52;97961.91;;;20.50;56.75
45327;BME280;31062;49.678;24.560;2023-05-16T12:13:37;97944.88;;;20.46;57.19
45327;BME280;31062;49.678;24.560;2023-05-16T12:16:23;97841.25;;;19.79;56.68
45327;BME280;31062;49.678;24.560;2023-05-16T12:19:09;97882.16;;;20.02;56.15
45327;BME280;31062;49.678;24.560;2023-05-16T12:21:55;98015.34;;;20.67;56.51
45327;BME280;31062;49.678;24.560;2023-05-16T12:24:40;97841.91;;;19.77;57.18
45327;BME280;31062;49.678;24.560;2023-05-16T12:27:25;97914.00;;;20.28;56.75
45327;BME280;31062;49.678;24.560;2023-05-16T12:30:12;97984.75;;;20.79;56.96
45327;BME280;31062;49.678;24.560;2023-05-16T12:33:02;97984.09;;;20.81;56.72
45327;BME280;31062;49.678;24.560;2023-05-16T12:35:52;97932.34;;;20.49;56.53
45327;BME280;31062;49.678;24.560;2023-05-16T12:38:39;97984.94;;;20.86;56.15
45327;BME280;31062;49.678;24.560;2023-05-16T12:41:24;97833.69;;;19.83;56.85
45327;BME280;31062;49.678;24.560;2023-05-16T12:44:17;97978.03;;;20.89;56.76
45327;BME280;31062;49.678;24.560;2023-05-16T12:47:10;97976.44;;;20.84;56.38
45327;BME280;31062;49.678;24.560;2023-05-16T12:49:56;98003.31;;;20.87;56.27
45327;BME280;31062;49.678;24.560;2023-05-16T12:52:52;97838.09;;;19.88;56.93
45327;BME280;31062;49.678;24.560;2023-05-16T12:55:39;97895.09;;;20.30;56.66
45327;BME280;31062;49.678;24.560;2023-05-16T12:58:26;97868.72;;;20.20;56.47
45327;BME280;31062;49.678;24.560;2023-05-16T13:01:11;97983.94;;;20.97;56.45
45327;BME280;31062;49.678;24.560;2023-05-16T13:03:59;97981.75;;;20.95;56.70
45327;BME280;31062;49.678;24.560;2023-05-16T13:06:45;97834.13;;;19.95;56.25
45327;BME280;31062;49.678;24.560;2023-05-16T13:09:42;97972.38;;;20.89;56.49
45327;BME280;31062;49.678;24.560;2023-05-16T13:12:28;97974.75;;;20.96;56.61
45327;BME280;31062;49.678;24.560;2023-05-16T13:15:14;97812.75;;;19.88;57.12
45327;BME280;31062;49.678;24.560;2023-05-16T13:17:59;97975.69;;;21.03;56.74
45327;BME280;31062;49.678;24.560;2023-05-16T13:20:45;97569.41;;;18.21;56.79
45327;BME280;31062;49.678;24.560;2023-05-16T13:23:31;97915.13;;;20.60;57.03
45327;BME280;31062;49.678;24.560;2023-05-16T13:26:17;97856.00;;;20.19;56.48
45327;BME280;31062;49.678;24.560;2023-05-16T13:29:02;97971.47;;;21.04;57.02
45327;BME280;31062;49.678;24.560;2023-05-16T13:31:47;97973.06;;;21.09;56.60
45327;BME280;31062;49.678;24.560;2023-05-16T13:34:34;97908.38;;;20.69;56.62
45327;BME280;31062;49.678;24.560;2023-05-16T13:37:19;97914.19;;;20.75;56.85
45327;BME280;31062;49.678;24.560;2023-05-16T13:40:06;97935.84;;;20.91;56.58
45327;BME280;31062;49.678;24.560;2023-05-16T13:42:55;97971.28;;;21.20;56.98
45327;BME280;31062;49.678;24.560;2023-05-16T13:45:41;97957.56;;;21.10;56.65
45327;BME280;31062;49.678;24.560;2023-05-16T13:48:27;97858.13;;;20.40;56.19
45327;BME280;31062;49.678;24.560;2023-05-16T13:51:13;97936.25;;;21.05;56.10
45327;BME280;31062;49.678;24.560;2023-05-16T13:53:58;97977.84;;;21.26;55.82
45327;BME280;31062;49.678;24.560;2023-05-16T13:56:44;97821.34;;;20.14;55.30
45327;BME280;31062;49.678;24.560;2023-05-16T13:59:30;97822.22;;;20.19;55.94
45327;BME280;31062;49.678;24.560;2023-05-16T14:02:35;97937.78;;;21.08;56.14
45327;BME280;31062;49.678;24.560;2023-05-16T14:05:21;97969.44;;;21.28;55.76
45327;BME280;31062;49.678;24.560;2023-05-16T14:08:07;97881.44;;;20.64;56.04
45327;BME280;31062;49.678;24.560;2023-05-16T14:10:52;97910.00;;;20.76;56.08
45327;BME280;31062;49.678;24.560;2023-05-16T14:13:38;97908.84;;;20.84;55.73
45327;BME280;31062;49.678;24.560;2023-05-16T14:16:25;97837.66;;;20.38;55.97
45327;BME280;31062;49.678;24.560;2023-05-16T14:19:11;97970.81;;;21.27;55.99
45327;BME280;31062;49.678;24.560;2023-05-16T14:21:58;97868.53;;;20.57;55.71
45327;BME280;31062;49.678;24.560;2023-05-16T14:24:44;97818.06;;;20.20;55.43
45327;BME280;31062;49.678;24.560;2023-05-16T14:27:29;97946.38;;;21.12;55.48
45327;BME280;31062;49.678;24.560;2023-05-16T14:30:16;97930.50;;;21.01;55.56
45327;BME280;31062;49.678;24.560;2023-05-16T14:33:01;97946.44;;;21.14;54.83
45327;BME280;31062;49.678;24.560;2023-05-16T14:35:47;97811.09;;;20.23;54.74
45327;BME280;31062;49.678;24.560;2023-05-16T14:38:35;97847.00;;;20.44;55.28
45327;BME280;31062;49.678;24.560;2023-05-16T14:41:21;97949.69;;;21.28;55.46
45327;BME280;31062;49.678;24.560;2023-05-16T14:44:07;97765.00;;;19.90;55.62
45327;BME280;31062;49.678;24.560;2023-05-16T14:46:52;97962.44;;;21.29;55.42